Oakland County International Airport
KPTK : now visible

Airfield :











YOU CAN JOIN US ON...

 
LOGIN :

Register | Disclaimer

   EN    FR    IT 

 









Legend :    VFR   Marginal VFR   IFR   Intensive IFR   Very Intensive IFR
Visi :
Ceiling :
>= 8 km
>= 3000ft
5 to 8 km
1000 to 3000 ft
1500m to 5 km
500 to 1000 ft
800 to 1500m
200 to 500 ft
< 800m
< 200 ft
Symbols :   Thunderstorms  Fog  Heavy snow  Heavy precipitations  Wind > 20 kt







- Airport Elevation : 980 ft


KPTK - Oakland County International

CURRENT METAR :
  • 161553Z 22008KT 4SM -RA SCT020 OVC034 24/21 A3000 RMK AO2 RAB48 SLP153 P0000 T02440206

EXPIRED METARs :
  • 161453Z 21010KT 10SM FEW020 BKN065 OVC120 25/20 A3000 RMK AO2 SLP150 T02500200 53009
  • 161353Z 21011G17KT 10SM FEW022 FEW090 BKN130 BKN240 26/20 A2998 RMK AO2 SLP144 T02560200

TAF KPTK
Valid from the 16 at 15:00 until the 17 at 12:00 UTC


161509Z 1615/1712 21010KT P6SM VCSH FEW020 BKN050 OVC100
TEMPO 1615/1618 5SM -SHRA BR SCT020 BKN035 OVC060
FM161800 22010KT P6SM -SHRA VCTS SCT030CB BKN060 OVC120
TEMPO 1620/1624 2SM +TSRA BR SCT028 OVC040CB
FM170000 17005KT 6SM BR VCSH SCT030 BKN050 OVC080
FM170500 VRB04KT 3SM SHRA BR SCT008 BKN014 OVC030
KZOB FIR / North America



MET'MAP, your aeronautical weather chart ! - Copyright ORBIFLY December 2007 - Disclaimer

ORBIFLY MET'MAP TEAM :

Programming & Development : Alexandra Zaïnal
Concept & Development : Baudouin d'Aumeries
Co-Development & Prog : Marc-Olivier Méhu
Technical & hardware support : Manuel Goepfert

Contact : metmap@orbifly.com




SOURCES & CREDITS :

   NOAA       Earth
Advisory